sensor_id;sensor_type;location;lat;lon;timestamp;P1;durP1;ratioP1;P2;durP2;ratioP2
20679;SDS011;10499;47.494;7.608;2023-03-05T00:00:35;0.40;;;0.40;;
20679;SDS011;10499;47.494;7.608;2023-03-05T00:03:01;0.40;;;0.40;;
20679;SDS011;10499;47.494;7.608;2023-03-05T00:05:26;0.40;;;0.40;;
20679;SDS011;10499;47.494;7.608;2023-03-05T00:07:52;0.40;;;0.40;;
20679;SDS011;10499;47.494;7.608;2023-03-05T00:10:18;0.40;;;0.40;;
20679;SDS011;10499;47.494;7.608;2023-03-05T00:12:43;0.40;;;0.40;;
20679;SDS011;10499;47.494;7.608;2023-03-05T00:15:09;0.40;;;0.40;;
20679;SDS011;10499;47.494;7.608;2023-03-05T00:17:35;0.40;;;0.40;;
20679;SDS011;10499;47.494;7.608;2023-03-05T00:20:00;0.40;;;0.40;;
20679;SDS011;10499;47.494;7.608;2023-03-05T00:22:26;0.40;;;0.40;;
20679;SDS011;10499;47.494;7.608;2023-03-05T00:24:52;0.40;;;0.40;;
20679;SDS011;10499;47.494;7.608;2023-03-05T00:27:17;0.40;;;0.40;;
20679;SDS011;10499;47.494;7.608;2023-03-05T00:29:43;0.37;;;0.37;;
20679;SDS011;10499;47.494;7.608;2023-03-05T00:32:09;0.40;;;0.40;;
20679;SDS011;10499;47.494;7.608;2023-03-05T00:34:34;0.40;;;0.40;;
20679;SDS011;10499;47.494;7.608;2023-03-05T00:37:01;0.40;;;0.40;;
20679;SDS011;10499;47.494;7.608;2023-03-05T00:39:26;0.40;;;0.40;;
20679;SDS011;10499;47.494;7.608;2023-03-05T00:41:53;0.40;;;0.40;;
20679;SDS011;10499;47.494;7.608;2023-03-05T00:44:19;0.40;;;0.40;;
20679;SDS011;10499;47.494;7.608;2023-03-05T00:46:45;0.40;;;0.40;;
20679;SDS011;10499;47.494;7.608;2023-03-05T00:49:11;0.40;;;0.40;;
20679;SDS011;10499;47.494;7.608;2023-03-05T00:51:36;0.40;;;0.40;;
20679;SDS011;10499;47.494;7.608;2023-03-05T00:54:02;0.40;;;0.40;;
20679;SDS011;10499;47.494;7.608;2023-03-05T00:56:29;0.40;;;0.40;;
20679;SDS011;10499;47.494;7.608;2023-03-05T00:58:55;0.40;;;0.40;;
20679;SDS011;10499;47.494;7.608;2023-03-05T01:01:21;0.40;;;0.40;;
20679;SDS011;10499;47.494;7.608;2023-03-05T01:03:47;0.40;;;0.40;;
20679;SDS011;10499;47.494;7.608;2023-03-05T01:06:13;0.40;;;0.40;;
20679;SDS011;10499;47.494;7.608;2023-03-05T01:08:41;0.40;;;0.40;;
20679;SDS011;10499;47.494;7.608;2023-03-05T01:11:07;0.40;;;0.40;;
20679;SDS011;10499;47.494;7.608;2023-03-05T01:13:33;0.40;;;0.40;;
20679;SDS011;10499;47.494;7.608;2023-03-05T01:15:59;0.40;;;0.40;;
20679;SDS011;10499;47.494;7.608;2023-03-05T01:18:25;0.40;;;0.40;;
20679;SDS011;10499;47.494;7.608;2023-03-05T01:20:51;0.40;;;0.40;;
20679;SDS011;10499;47.494;7.608;2023-03-05T01:23:16;0.40;;;0.40;;
20679;SDS011;10499;47.494;7.608;2023-03-05T01:25:42;0.40;;;0.40;;
20679;SDS011;10499;47.494;7.608;2023-03-05T01:28:08;0.40;;;0.40;;
20679;SDS011;10499;47.494;7.608;2023-03-05T01:30:34;0.40;;;0.40;;
20679;SDS011;10499;47.494;7.608;2023-03-05T01:33:00;0.40;;;0.40;;
20679;SDS011;10499;47.494;7.608;2023-03-05T01:35:26;0.40;;;0.40;;
20679;SDS011;10499;47.494;7.608;2023-03-05T01:37:52;0.40;;;0.40;;
20679;SDS011;10499;47.494;7.608;2023-03-05T01:40:28;0.40;;;0.40;;
20679;SDS011;10499;47.494;7.608;2023-03-05T01:43:00;0.40;;;0.40;;
20679;SDS011;10499;47.494;7.608;2023-03-05T01:48:48;0.40;;;0.40;;
20679;SDS011;10499;47.494;7.608;2023-03-05T01:51:19;0.40;;;0.40;;
20679;SDS011;10499;47.494;7.608;2023-03-05T01:53:49;0.40;;;0.40;;
20679;SDS011;10499;47.494;7.608;2023-03-05T01:56:15;0.40;;;0.40;;
20679;SDS011;10499;47.494;7.608;2023-03-05T01:58:41;0.50;;;0.50;;
20679;SDS011;10499;47.494;7.608;2023-03-05T02:01:08;0.50;;;0.50;;
20679;SDS011;10499;47.494;7.608;2023-03-05T02:03:33;0.40;;;0.40;;
20679;SDS011;10499;47.494;7.608;2023-03-05T02:06:00;0.50;;;0.50;;
20679;SDS011;10499;47.494;7.608;2023-03-05T02:08:26;0.50;;;0.50;;
20679;SDS011;10499;47.494;7.608;2023-03-05T02:10:55;0.50;;;0.50;;
20679;SDS011;10499;47.494;7.608;2023-03-05T02:13:25;0.40;;;0.40;;
20679;SDS011;10499;47.494;7.608;2023-03-05T02:15:53;0.40;;;0.40;;
20679;SDS011;10499;47.494;7.608;2023-03-05T02:18:22;0.43;;;0.43;;
20679;SDS011;10499;47.494;7.608;2023-03-05T02:23:21;0.40;;;0.40;;
20679;SDS011;10499;47.494;7.608;2023-03-05T02:25:52;0.40;;;0.40;;
20679;SDS011;10499;47.494;7.608;2023-03-05T02:28:22;0.40;;;0.40;;
20679;SDS011;10499;47.494;7.608;2023-03-05T02:31:09;0.40;;;0.40;;
20679;SDS011;10499;47.494;7.608;2023-03-05T02:33:40;0.50;;;0.50;;
20679;SDS011;10499;47.494;7.608;2023-03-05T02:36:06;0.40;;;0.40;;
20679;SDS011;10499;47.494;7.608;2023-03-05T02:38:32;0.40;;;0.40;;
20679;SDS011;10499;47.494;7.608;2023-03-05T02:40:58;0.40;;;0.40;;
20679;SDS011;10499;47.494;7.608;2023-03-05T02:43:24;0.50;;;0.50;;
20679;SDS011;10499;47.494;7.608;2023-03-05T02:45:50;0.50;;;0.50;;
20679;SDS011;10499;47.494;7.608;2023-03-05T02:48:16;0.40;;;0.40;;
20679;SDS011;10499;47.494;7.608;2023-03-05T02:50:42;0.50;;;0.50;;
20679;SDS011;10499;47.494;7.608;2023-03-05T02:53:09;0.40;;;0.40;;
20679;SDS011;10499;47.494;7.608;2023-03-05T02:55:34;0.50;;;0.50;;
20679;SDS011;10499;47.494;7.608;2023-03-05T02:58:00;0.50;;;0.50;;
20679;SDS011;10499;47.494;7.608;2023-03-05T03:00:26;0.50;;;0.50;;
20679;SDS011;10499;47.494;7.608;2023-03-05T03:02:52;0.50;;;0.50;;
20679;SDS011;10499;47.494;7.608;2023-03-05T03:05:17;0.40;;;0.40;;
20679;SDS011;10499;47.494;7.608;2023-03-05T03:07:43;0.40;;;0.40;;
20679;SDS011;10499;47.494;7.608;2023-03-05T03:10:09;0.40;;;0.40;;
20679;SDS011;10499;47.494;7.608;2023-03-05T03:12:39;0.40;;;0.40;;
20679;SDS011;10499;47.494;7.608;2023-03-05T03:15:06;0.40;;;0.40;;
20679;SDS011;10499;47.494;7.608;2023-03-05T03:17:33;0.40;;;0.40;;
20679;SDS011;10499;47.494;7.608;2023-03-05T03:20:00;0.40;;;0.40;;
20679;SDS011;10499;47.494;7.608;2023-03-05T03:22:27;0.40;;;0.40;;
20679;SDS011;10499;47.494;7.608;2023-03-05T03:24:53;0.40;;;0.40;;
20679;SDS011;10499;47.494;7.608;2023-03-05T03:27:18;0.40;;;0.40;;
20679;SDS011;10499;47.494;7.608;2023-03-05T03:29:44;0.40;;;0.40;;
20679;SDS011;10499;47.494;7.608;2023-03-05T03:32:10;0.40;;;0.40;;
20679;SDS011;10499;47.494;7.608;2023-03-05T03:34:35;0.40;;;0.40;;
20679;SDS011;10499;47.494;7.608;2023-03-05T03:37:01;0.50;;;0.50;;
20679;SDS011;10499;47.494;7.608;2023-03-05T03:39:26;0.50;;;0.50;;
20679;SDS011;10499;47.494;7.608;2023-03-05T03:41:53;0.40;;;0.40;;
20679;SDS011;10499;47.494;7.608;2023-03-05T03:44:19;0.40;;;0.40;;
20679;SDS011;10499;47.494;7.608;2023-03-05T03:46:46;0.40;;;0.40;;
20679;SDS011;10499;47.494;7.608;2023-03-05T03:49:17;0.50;;;0.50;;
20679;SDS011;10499;47.494;7.608;2023-03-05T03:51:44;0.50;;;0.50;;
20679;SDS011;10499;47.494;7.608;2023-03-05T03:54:11;0.40;;;0.40;;
20679;SDS011;10499;47.494;7.608;2023-03-05T03:56:37;0.50;;;0.50;;
20679;SDS011;10499;47.494;7.608;2023-03-05T03:59:02;0.40;;;0.40;;
20679;SDS011;10499;47.494;7.608;2023-03-05T04:01:28;0.40;;;0.40;;
20679;SDS011;10499;47.494;7.608;2023-03-05T04:03:54;0.40;;;0.40;;
20679;SDS011;10499;47.494;7.608;2023-03-05T04:06:19;0.40;;;0.40;;
20679;SDS011;10499;47.494;7.608;2023-03-05T04:08:45;0.50;;;0.50;;
20679;SDS011;10499;47.494;7.608;2023-03-05T04:11:11;0.40;;;0.40;;
20679;SDS011;10499;47.494;7.608;2023-03-05T04:13:36;0.40;;;0.40;;
20679;SDS011;10499;47.494;7.608;2023-03-05T04:16:02;0.40;;;0.40;;
20679;SDS011;10499;47.494;7.608;2023-03-05T04:18:28;0.43;;;0.43;;
20679;SDS011;10499;47.494;7.608;2023-03-05T04:20:54;0.40;;;0.40;;
20679;SDS011;10499;47.494;7.608;2023-03-05T04:23:19;0.50;;;0.50;;
20679;SDS011;10499;47.494;7.608;2023-03-05T04:25:45;0.50;;;0.50;;
20679;SDS011;10499;47.494;7.608;2023-03-05T04:28:12;0.40;;;0.40;;
20679;SDS011;10499;47.494;7.608;2023-03-05T04:30:37;0.50;;;0.50;;
20679;SDS011;10499;47.494;7.608;2023-03-05T04:33:03;0.50;;;0.50;;
20679;SDS011;10499;47.494;7.608;2023-03-05T04:35:29;0.40;;;0.40;;
20679;SDS011;10499;47.494;7.608;2023-03-05T04:37:54;0.50;;;0.50;;
20679;SDS011;10499;47.494;7.608;2023-03-05T04:40:20;0.50;;;0.50;;
20679;SDS011;10499;47.494;7.608;2023-03-05T04:42:46;0.40;;;0.40;;
20679;SDS011;10499;47.494;7.608;2023-03-05T04:45:11;0.40;;;0.40;;
20679;SDS011;10499;47.494;7.608;2023-03-05T04:47:37;0.50;;;0.50;;
20679;SDS011;10499;47.494;7.608;2023-03-05T04:50:03;0.50;;;0.50;;
20679;SDS011;10499;47.494;7.608;2023-03-05T04:52:30;0.50;;;0.50;;
20679;SDS011;10499;47.494;7.608;2023-03-05T04:54:56;0.50;;;0.50;;
20679;SDS011;10499;47.494;7.608;2023-03-05T04:57:21;0.40;;;0.40;;
20679;SDS011;10499;47.494;7.608;2023-03-05T04:59:47;0.50;;;0.50;;
20679;SDS011;10499;47.494;7.608;2023-03-05T05:02:13;0.50;;;0.50;;
20679;SDS011;10499;47.494;7.608;2023-03-05T05:04:38;0.50;;;0.50;;
20679;SDS011;10499;47.494;7.608;2023-03-05T05:07:07;0.50;;;0.50;;
20679;SDS011;10499;47.494;7.608;2023-03-05T05:09:32;0.50;;;0.50;;
20679;SDS011;10499;47.494;7.608;2023-03-05T05:11:58;0.50;;;0.50;;
20679;SDS011;10499;47.494;7.608;2023-03-05T05:14:24;0.50;;;0.50;;
20679;SDS011;10499;47.494;7.608;2023-03-05T05:16:49;0.50;;;0.50;;
20679;SDS011;10499;47.494;7.608;2023-03-05T05:19:15;0.50;;;0.50;;
20679;SDS011;10499;47.494;7.608;2023-03-05T05:21:41;0.50;;;0.50;;
20679;SDS011;10499;47.494;7.608;2023-03-05T05:24:06;0.40;;;0.40;;
20679;SDS011;10499;47.494;7.608;2023-03-05T05:26:32;0.50;;;0.50;;
20679;SDS011;10499;47.494;7.608;2023-03-05T05:28:58;0.50;;;0.50;;
20679;SDS011;10499;47.494;7.608;2023-03-05T05:31:23;0.50;;;0.50;;
20679;SDS011;10499;47.494;7.608;2023-03-05T05:33:49;0.50;;;0.50;;
20679;SDS011;10499;47.494;7.608;2023-03-05T05:36:16;0.40;;;0.40;;
20679;SDS011;10499;47.494;7.608;2023-03-05T05:38:43;0.50;;;0.50;;
20679;SDS011;10499;47.494;7.608;2023-03-05T05:41:10;0.50;;;0.50;;
20679;SDS011;10499;47.494;7.608;2023-03-05T05:43:38;0.40;;;0.40;;
20679;SDS011;10499;47.494;7.608;2023-03-05T05:46:06;0.40;;;0.40;;
20679;SDS011;10499;47.494;7.608;2023-03-05T05:48:33;0.50;;;0.50;;
20679;SDS011;10499;47.494;7.608;2023-03-05T05:51:03;0.50;;;0.50;;
20679;SDS011;10499;47.494;7.608;2023-03-05T05:53:33;0.40;;;0.40;;
20679;SDS011;10499;47.494;7.608;2023-03-05T05:55:59;0.50;;;0.50;;
20679;SDS011;10499;47.494;7.608;2023-03-05T05:58:25;0.50;;;0.50;;
20679;SDS011;10499;47.494;7.608;2023-03-05T06:00:50;0.40;;;0.40;;
20679;SDS011;10499;47.494;7.608;2023-03-05T06:03:16;0.50;;;0.50;;
20679;SDS011;10499;47.494;7.608;2023-03-05T06:05:42;0.50;;;0.50;;
20679;SDS011;10499;47.494;7.608;2023-03-05T06:08:07;0.50;;;0.50;;
20679;SDS011;10499;47.494;7.608;2023-03-05T06:10:33;0.40;;;0.40;;
20679;SDS011;10499;47.494;7.608;2023-03-05T06:12:59;0.50;;;0.50;;
20679;SDS011;10499;47.494;7.608;2023-03-05T06:15:25;0.50;;;0.50;;
20679;SDS011;10499;47.494;7.608;2023-03-05T06:17:51;0.50;;;0.50;;
20679;SDS011;10499;47.494;7.608;2023-03-05T06:20:18;0.40;;;0.40;;
20679;SDS011;10499;47.494;7.608;2023-03-05T06:22:44;0.50;;;0.50;;
20679;SDS011;10499;47.494;7.608;2023-03-05T06:25:10;0.50;;;0.50;;
20679;SDS011;10499;47.494;7.608;2023-03-05T06:27:36;0.50;;;0.50;;
20679;SDS011;10499;47.494;7.608;2023-03-05T06:30:02;0.50;;;0.50;;
20679;SDS011;10499;47.494;7.608;2023-03-05T06:32:29;0.50;;;0.50;;
20679;SDS011;10499;47.494;7.608;2023-03-05T06:34:55;0.50;;;0.50;;
20679;SDS011;10499;47.494;7.608;2023-03-05T06:37:20;0.50;;;0.50;;
20679;SDS011;10499;47.494;7.608;2023-03-05T06:39:46;0.40;;;0.40;;
20679;SDS011;10499;47.494;7.608;2023-03-05T06:42:12;0.50;;;0.50;;
20679;SDS011;10499;47.494;7.608;2023-03-05T06:44:38;0.47;;;0.47;;
20679;SDS011;10499;47.494;7.608;2023-03-05T06:47:05;0.43;;;0.43;;
20679;SDS011;10499;47.494;7.608;2023-03-05T06:49:34;0.50;;;0.50;;
20679;SDS011;10499;47.494;7.608;2023-03-05T06:52:01;0.50;;;0.50;;
20679;SDS011;10499;47.494;7.608;2023-03-05T06:54:28;0.40;;;0.40;;
20679;SDS011;10499;47.494;7.608;2023-03-05T06:56:53;0.47;;;0.47;;
20679;SDS011;10499;47.494;7.608;2023-03-05T06:59:19;0.43;;;0.43;;
20679;SDS011;10499;47.494;7.608;2023-03-05T07:01:45;0.40;;;0.40;;
20679;SDS011;10499;47.494;7.608;2023-03-05T07:04:12;0.40;;;0.40;;
20679;SDS011;10499;47.494;7.608;2023-03-05T07:06:38;0.40;;;0.40;;
20679;SDS011;10499;47.494;7.608;2023-03-05T07:09:06;0.50;;;0.50;;
20679;SDS011;10499;47.494;7.608;2023-03-05T07:11:33;0.40;;;0.40;;
20679;SDS011;10499;47.494;7.608;2023-03-05T07:13:58;0.40;;;0.40;;
20679;SDS011;10499;47.494;7.608;2023-03-05T07:16:25;0.40;;;0.40;;
20679;SDS011;10499;47.494;7.608;2023-03-05T07:18:53;0.40;;;0.40;;
20679;SDS011;10499;47.494;7.608;2023-03-05T07:21:22;0.40;;;0.40;;
20679;SDS011;10499;47.494;7.608;2023-03-05T07:23:49;0.40;;;0.40;;
20679;SDS011;10499;47.494;7.608;2023-03-05T07:26:17;0.40;;;0.40;;
20679;SDS011;10499;47.494;7.608;2023-03-05T07:28:43;0.40;;;0.40;;
20679;SDS011;10499;47.494;7.608;2023-03-05T07:31:17;0.40;;;0.40;;
20679;SDS011;10499;47.494;7.608;2023-03-05T07:33:48;0.40;;;0.40;;
20679;SDS011;10499;47.494;7.608;2023-03-05T07:36:14;0.40;;;0.40;;
20679;SDS011;10499;47.494;7.608;2023-03-05T07:38:41;0.40;;;0.40;;
20679;SDS011;10499;47.494;7.608;2023-03-05T07:41:08;0.40;;;0.40;;
20679;SDS011;10499;47.494;7.608;2023-03-05T07:43:35;0.40;;;0.40;;
20679;SDS011;10499;47.494;7.608;2023-03-05T07:46:04;0.40;;;0.40;;
20679;SDS011;10499;47.494;7.608;2023-03-05T07:48:31;0.40;;;0.40;;
20679;SDS011;10499;47.494;7.608;2023-03-05T07:51:01;0.50;;;0.50;;
20679;SDS011;10499;47.494;7.608;2023-03-05T07:53:27;0.33;;;0.33;;
20679;SDS011;10499;47.494;7.608;2023-03-05T07:55:53;0.40;;;0.40;;
20679;SDS011;10499;47.494;7.608;2023-03-05T07:58:18;0.40;;;0.40;;
20679;SDS011;10499;47.494;7.608;2023-03-05T08:00:44;0.30;;;0.30;;
20679;SDS011;10499;47.494;7.608;2023-03-05T08:03:09;0.30;;;0.30;;
20679;SDS011;10499;47.494;7.608;2023-03-05T08:05:37;0.30;;;0.30;;
20679;SDS011;10499;47.494;7.608;2023-03-05T08:08:03;0.30;;;0.30;;
20679;SDS011;10499;47.494;7.608;2023-03-05T08:10:30;0.20;;;0.20;;
20679;SDS011;10499;47.494;7.608;2023-03-05T08:12:56;0.20;;;0.20;;
20679;SDS011;10499;47.494;7.608;2023-03-05T08:15:21;0.20;;;0.20;;
20679;SDS011;10499;47.494;7.608;2023-03-05T08:17:47;0.20;;;0.20;;
20679;SDS011;10499;47.494;7.608;2023-03-05T08:20:12;0.20;;;0.20;;
20679;SDS011;10499;47.494;7.608;2023-03-05T08:22:38;0.10;;;0.10;;
20679;SDS011;10499;47.494;7.608;2023-03-05T08:25:04;0.10;;;0.10;;
20679;SDS011;10499;47.494;7.608;2023-03-05T08:27:30;0.10;;;0.10;;
20679;SDS011;10499;47.494;7.608;2023-03-05T08:29:56;0.20;;;0.20;;
20679;SDS011;10499;47.494;7.608;2023-03-05T08:32:22;0.10;;;0.10;;
20679;SDS011;10499;47.494;7.608;2023-03-05T08:34:48;0.10;;;0.10;;
20679;SDS011;10499;47.494;7.608;2023-03-05T08:37:14;0.10;;;0.10;;
20679;SDS011;10499;47.494;7.608;2023-03-05T08:39:39;0.10;;;0.10;;
20679;SDS011;10499;47.494;7.608;2023-03-05T08:42:05;0.10;;;0.10;;
20679;SDS011;10499;47.494;7.608;2023-03-05T08:44:31;0.10;;;0.10;;
20679;SDS011;10499;47.494;7.608;2023-03-05T08:46:56;0.10;;;0.10;;
20679;SDS011;10499;47.494;7.608;2023-03-05T08:49:22;0.10;;;0.10;;
20679;SDS011;10499;47.494;7.608;2023-03-05T08:51:48;0.10;;;0.10;;
20679;SDS011;10499;47.494;7.608;2023-03-05T08:54:13;0.10;;;0.10;;
20679;SDS011;10499;47.494;7.608;2023-03-05T08:56:39;0.10;;;0.10;;
20679;SDS011;10499;47.494;7.608;2023-03-05T08:59:05;0.10;;;0.10;;
20679;SDS011;10499;47.494;7.608;2023-03-05T09:01:32;0.10;;;0.10;;
20679;SDS011;10499;47.494;7.608;2023-03-05T09:03:57;0.10;;;0.10;;
20679;SDS011;10499;47.494;7.608;2023-03-05T09:06:24;0.10;;;0.10;;
20679;SDS011;10499;47.494;7.608;2023-03-05T09:08:50;0.10;;;0.10;;
20679;SDS011;10499;47.494;7.608;2023-03-05T09:11:16;0.10;;;0.10;;
20679;SDS011;10499;47.494;7.608;2023-03-05T09:13:41;0.10;;;0.10;;
20679;SDS011;10499;47.494;7.608;2023-03-05T09:16:09;0.00;;;0.00;;
20679;SDS011;10499;47.494;7.608;2023-03-05T09:18:36;0.10;;;0.10;;
20679;SDS011;10499;47.494;7.608;2023-03-05T09:21:05;0.10;;;0.10;;
20679;SDS011;10499;47.494;7.608;2023-03-05T09:23:35;0.00;;;0.00;;
20679;SDS011;10499;47.494;7.608;2023-03-05T09:26:03;0.00;;;0.00;;
20679;SDS011;10499;47.494;7.608;2023-03-05T09:28:30;0.00;;;0.00;;
20679;SDS011;10499;47.494;7.608;2023-03-05T09:30:55;0.10;;;0.10;;
20679;SDS011;10499;47.494;7.608;2023-03-05T09:33:21;0.10;;;0.10;;
20679;SDS011;10499;47.494;7.608;2023-03-05T09:35:46;0.10;;;0.10;;
20679;SDS011;10499;47.494;7.608;2023-03-05T09:38:12;0.10;;;0.10;;
20679;SDS011;10499;47.494;7.608;2023-03-05T09:40:48;0.10;;;0.10;;
20679;SDS011;10499;47.494;7.608;2023-03-05T09:46:24;0.10;;;0.10;;
20679;SDS011;10499;47.494;7.608;2023-03-05T09:51:44;0.10;;;0.10;;
20679;SDS011;10499;47.494;7.608;2023-03-05T09:54:13;0.10;;;0.10;;
20679;SDS011;10499;47.494;7.608;2023-03-05T09:56:47;0.10;;;0.10;;
20679;SDS011;10499;47.494;7.608;2023-03-05T10:02:22;0.10;;;0.10;;
20679;SDS011;10499;47.494;7.608;2023-03-05T10:04:56;0.10;;;0.10;;
20679;SDS011;10499;47.494;7.608;2023-03-05T10:07:33;0.10;;;0.10;;
20679;SDS011;10499;47.494;7.608;2023-03-05T10:10:12;0.10;;;0.10;;
20679;SDS011;10499;47.494;7.608;2023-03-05T10:12:50;0.10;;;0.10;;
20679;SDS011;10499;47.494;7.608;2023-03-05T10:18:34;0.10;;;0.10;;
20679;SDS011;10499;47.494;7.608;2023-03-05T10:21:23;0.10;;;0.10;;
20679;SDS011;10499;47.494;7.608;2023-03-05T10:26:35;0.10;;;0.10;;
20679;SDS011;10499;47.494;7.608;2023-03-05T10:32:39;0.10;;;0.10;;
20679;SDS011;10499;47.494;7.608;2023-03-05T10:35:20;0.10;;;0.10;;
20679;SDS011;10499;47.494;7.608;2023-03-05T10:40:51;0.10;;;0.10;;
20679;SDS011;10499;47.494;7.608;2023-03-05T10:43:25;0.10;;;0.10;;
20679;SDS011;10499;47.494;7.608;2023-03-05T10:46:03;0.10;;;0.10;;
20679;SDS011;10499;47.494;7.608;2023-03-05T10:51:50;0.10;;;0.10;;
20679;SDS011;10499;47.494;7.608;2023-03-05T10:56:49;0.10;;;0.10;;
20679;SDS011;10499;47.494;7.608;2023-03-05T10:59:26;0.10;;;0.10;;
20679;SDS011;10499;47.494;7.608;2023-03-05T11:02:05;0.10;;;0.10;;
20679;SDS011;10499;47.494;7.608;2023-03-05T11:04:34;0.10;;;0.10;;
20679;SDS011;10499;47.494;7.608;2023-03-05T11:09:41;0.10;;;0.10;;
20679;SDS011;10499;47.494;7.608;2023-03-05T11:12:18;0.10;;;0.10;;
20679;SDS011;10499;47.494;7.608;2023-03-05T11:17:42;0.10;;;0.10;;
20679;SDS011;10499;47.494;7.608;2023-03-05T11:26:38;0.10;;;0.10;;
20679;SDS011;10499;47.494;7.608;2023-03-05T11:36:30;0.10;;;0.10;;
20679;SDS011;10499;47.494;7.608;2023-03-05T11:44:19;0.10;;;0.10;;
20679;SDS011;10499;47.494;7.608;2023-03-05T11:47:08;0.10;;;0.10;;
20679;SDS011;10499;47.494;7.608;2023-03-05T11:49:53;0.10;;;0.10;;
20679;SDS011;10499;47.494;7.608;2023-03-05T11:52:30;0.10;;;0.10;;
20679;SDS011;10499;47.494;7.608;2023-03-05T11:55:12;0.10;;;0.10;;
20679;SDS011;10499;47.494;7.608;2023-03-05T11:57:47;0.05;;;0.05;;
20679;SDS011;10499;47.494;7.608;2023-03-05T12:00:23;0.10;;;0.10;;
20679;SDS011;10499;47.494;7.608;2023-03-05T12:02:53;0.10;;;0.10;;
20679;SDS011;10499;47.494;7.608;2023-03-05T12:05:21;0.10;;;0.10;;
20679;SDS011;10499;47.494;7.608;2023-03-05T12:07:48;0.10;;;0.10;;
20679;SDS011;10499;47.494;7.608;2023-03-05T12:10:17;0.10;;;0.10;;
20679;SDS011;10499;47.494;7.608;2023-03-05T12:15:43;0.10;;;0.10;;
20679;SDS011;10499;47.494;7.608;2023-03-05T12:18:50;0.10;;;0.10;;
20679;SDS011;10499;47.494;7.608;2023-03-05T12:35:02;0.10;;;0.10;;
20679;SDS011;10499;47.494;7.608;2023-03-05T12:40:20;0.10;;;0.10;;
20679;SDS011;10499;47.494;7.608;2023-03-05T12:45:27;0.10;;;0.10;;
20679;SDS011;10499;47.494;7.608;2023-03-05T12:55:34;0.10;;;0.10;;
20679;SDS011;10499;47.494;7.608;2023-03-05T12:58:08;0.10;;;0.10;;
20679;SDS011;10499;47.494;7.608;2023-03-05T13:00:45;0.10;;;0.10;;
20679;SDS011;10499;47.494;7.608;2023-03-05T13:03:18;0.10;;;0.10;;
20679;SDS011;10499;47.494;7.608;2023-03-05T13:05:52;0.10;;;0.10;;
20679;SDS011;10499;47.494;7.608;2023-03-05T13:08:26;0.05;;;0.05;;
20679;SDS011;10499;47.494;7.608;2023-03-05T13:11:02;0.10;;;0.10;;
20679;SDS011;10499;47.494;7.608;2023-03-05T13:13:33;0.00;;;0.00;;
20679;SDS011;10499;47.494;7.608;2023-03-05T13:16:01;0.10;;;0.10;;
20679;SDS011;10499;47.494;7.608;2023-03-05T13:18:31;0.10;;;0.10;;
20679;SDS011;10499;47.494;7.608;2023-03-05T13:23:31;0.10;;;0.10;;
20679;SDS011;10499;47.494;7.608;2023-03-05T13:26:13;0.10;;;0.10;;
20679;SDS011;10499;47.494;7.608;2023-03-05T13:28:43;0.10;;;0.10;;
20679;SDS011;10499;47.494;7.608;2023-03-05T13:31:16;0.10;;;0.10;;
20679;SDS011;10499;47.494;7.608;2023-03-05T13:33:52;0.10;;;0.10;;
20679;SDS011;10499;47.494;7.608;2023-03-05T13:36:29;0.10;;;0.10;;
20679;SDS011;10499;47.494;7.608;2023-03-05T13:38:55;0.10;;;0.10;;
20679;SDS011;10499;47.494;7.608;2023-03-05T13:41:23;0.10;;;0.10;;
20679;SDS011;10499;47.494;7.608;2023-03-05T13:43:54;0.10;;;0.10;;
20679;SDS011;10499;47.494;7.608;2023-03-05T13:46:32;0.10;;;0.10;;
20679;SDS011;10499;47.494;7.608;2023-03-05T13:51:51;0.10;;;0.10;;
20679;SDS011;10499;47.494;7.608;2023-03-05T13:54:19;0.10;;;0.10;;
20679;SDS011;10499;47.494;7.608;2023-03-05T13:56:54;0.10;;;0.10;;
20679;SDS011;10499;47.494;7.608;2023-03-05T13:59:25;0.10;;;0.10;;
20679;SDS011;10499;47.494;7.608;2023-03-05T14:01:54;0.15;;;0.15;;
20679;SDS011;10499;47.494;7.608;2023-03-05T14:04:56;0.10;;;0.10;;
20679;SDS011;10499;47.494;7.608;2023-03-05T14:07:32;0.10;;;0.10;;
20679;SDS011;10499;47.494;7.608;2023-03-05T14:10:22;0.20;;;0.20;;
20679;SDS011;10499;47.494;7.608;2023-03-05T14:13:18;0.20;;;0.20;;
20679;SDS011;10499;47.494;7.608;2023-03-05T14:16:04;0.10;;;0.10;;
20679;SDS011;10499;47.494;7.608;2023-03-05T14:18:32;0.20;;;0.20;;
20679;SDS011;10499;47.494;7.608;2023-03-05T14:23:43;0.20;;;0.20;;
20679;SDS011;10499;47.494;7.608;2023-03-05T14:29:12;0.20;;;0.20;;
20679;SDS011;10499;47.494;7.608;2023-03-05T14:32:02;0.20;;;0.20;;
20679;SDS011;10499;47.494;7.608;2023-03-05T14:34:33;0.20;;;0.20;;
20679;SDS011;10499;47.494;7.608;2023-03-05T14:37:50;0.10;;;0.10;;
20679;SDS011;10499;47.494;7.608;2023-03-05T14:39:57;0.20;;;0.20;;
20679;SDS011;10499;47.494;7.608;2023-03-05T14:42:30;0.20;;;0.20;;
20679;SDS011;10499;47.494;7.608;2023-03-05T14:45:03;0.20;;;0.20;;
20679;SDS011;10499;47.494;7.608;2023-03-05T14:47:54;0.10;;;0.10;;
20679;SDS011;10499;47.494;7.608;2023-03-05T14:50:28;0.20;;;0.20;;
20679;SDS011;10499;47.494;7.608;2023-03-05T14:53:01;0.20;;;0.20;;
20679;SDS011;10499;47.494;7.608;2023-03-05T14:55:32;0.20;;;0.20;;
20679;SDS011;10499;47.494;7.608;2023-03-05T14:58:12;0.20;;;0.20;;
20679;SDS011;10499;47.494;7.608;2023-03-05T15:00:50;0.20;;;0.20;;
20679;SDS011;10499;47.494;7.608;2023-03-05T15:03:17;0.20;;;0.20;;
20679;SDS011;10499;47.494;7.608;2023-03-05T15:05:45;0.20;;;0.20;;
20679;SDS011;10499;47.494;7.608;2023-03-05T15:08:13;0.20;;;0.20;;
20679;SDS011;10499;47.494;7.608;2023-03-05T15:10:46;0.20;;;0.20;;
20679;SDS011;10499;47.494;7.608;2023-03-05T15:13:13;0.20;;;0.20;;
20679;SDS011;10499;47.494;7.608;2023-03-05T15:15:42;0.20;;;0.20;;
20679;SDS011;10499;47.494;7.608;2023-03-05T15:18:13;0.20;;;0.20;;
20679;SDS011;10499;47.494;7.608;2023-03-05T15:20:41;0.20;;;0.20;;
20679;SDS011;10499;47.494;7.608;2023-03-05T15:23:15;0.20;;;0.20;;
20679;SDS011;10499;47.494;7.608;2023-03-05T15:25:44;0.20;;;0.20;;
20679;SDS011;10499;47.494;7.608;2023-03-05T15:28:10;0.20;;;0.20;;
20679;SDS011;10499;47.494;7.608;2023-03-05T15:30:37;0.20;;;0.20;;
20679;SDS011;10499;47.494;7.608;2023-03-05T15:33:05;0.20;;;0.20;;
20679;SDS011;10499;47.494;7.608;2023-03-05T15:35:33;0.20;;;0.20;;
20679;SDS011;10499;47.494;7.608;2023-03-05T15:37:59;0.20;;;0.20;;
20679;SDS011;10499;47.494;7.608;2023-03-05T15:40:25;0.20;;;0.20;;
20679;SDS011;10499;47.494;7.608;2023-03-05T15:42:54;0.20;;;0.20;;
20679;SDS011;10499;47.494;7.608;2023-03-05T15:45:21;0.20;;;0.20;;
20679;SDS011;10499;47.494;7.608;2023-03-05T15:47:48;0.20;;;0.20;;
20679;SDS011;10499;47.494;7.608;2023-03-05T15:50:15;0.20;;;0.20;;
20679;SDS011;10499;47.494;7.608;2023-03-05T15:52:44;0.20;;;0.20;;
20679;SDS011;10499;47.494;7.608;2023-03-05T15:55:10;0.20;;;0.20;;
20679;SDS011;10499;47.494;7.608;2023-03-05T15:57:37;0.20;;;0.20;;
20679;SDS011;10499;47.494;7.608;2023-03-05T16:00:08;0.20;;;0.20;;
20679;SDS011;10499;47.494;7.608;2023-03-05T16:02:34;0.20;;;0.20;;
20679;SDS011;10499;47.494;7.608;2023-03-05T16:05:00;0.20;;;0.20;;
20679;SDS011;10499;47.494;7.608;2023-03-05T16:07:26;0.20;;;0.20;;
20679;SDS011;10499;47.494;7.608;2023-03-05T16:09:52;0.20;;;0.20;;
20679;SDS011;10499;47.494;7.608;2023-03-05T16:12:20;0.20;;;0.20;;
20679;SDS011;10499;47.494;7.608;2023-03-05T16:14:49;0.20;;;0.20;;
20679;SDS011;10499;47.494;7.608;2023-03-05T16:17:15;0.20;;;0.20;;
20679;SDS011;10499;47.494;7.608;2023-03-05T16:19:46;0.20;;;0.20;;
20679;SDS011;10499;47.494;7.608;2023-03-05T16:22:15;0.20;;;0.20;;
20679;SDS011;10499;47.494;7.608;2023-03-05T16:24:41;0.30;;;0.30;;
20679;SDS011;10499;47.494;7.608;2023-03-05T16:27:06;0.20;;;0.20;;
20679;SDS011;10499;47.494;7.608;2023-03-05T16:29:32;0.20;;;0.20;;
20679;SDS011;10499;47.494;7.608;2023-03-05T16:31:59;0.20;;;0.20;;
20679;SDS011;10499;47.494;7.608;2023-03-05T16:34:26;0.30;;;0.30;;